AVA2824 SKRG-SKBO
Flight info
| Callsign | AVA2824 |
|---|---|
| Flight time | 0h 33m |
| Altitude | 23000 |
| Route | ISVAT2B ISVAT ISVAT5W |
| Aircraft | A320/M-SDE3FGHIRWY/LB1 |
Departure
| Time | 2026-04-26 21:26 |
|---|---|
| Airport | Jose Maria Córdova International Airport (SKRG) |
Arrival
| Time | 2026-04-26 22:00 |
|---|---|
| Airport | El Dorado International Airport (SKBO) |
| Time | Latitude | Longitude | Altitude | Speed | Heading |
|---|---|---|---|---|---|
| 2026-04-26 20:45 | 6.16974 | -75.42800 | 7016 ft | 0 kts | 340° |
| 2026-04-26 21:06 | 6.16963 | -75.42796 | 7020 ft | 4 kts | 340° |
| 2026-04-26 21:07 | 6.16939 | -75.42790 | 7018 ft | 4 kts | 10° |
| 2026-04-26 21:07 | 6.16918 | -75.42801 | 7020 ft | 4 kts | 64° |
| 2026-04-26 21:07 | 6.16914 | -75.42812 | 7020 ft | 1 kts | 72° |
| 2026-04-26 21:07 | 6.16914 | -75.42813 | 7019 ft | 0 kts | 72° |
| 2026-04-26 21:12 | 6.16915 | -75.42810 | 7019 ft | 0 kts | 72° |
| 2026-04-26 21:13 | 6.16916 | -75.42804 | 7018 ft | 3 kts | 71° |
| 2026-04-26 21:13 | 6.16923 | -75.42786 | 7016 ft | 2 kts | 70° |
| 2026-04-26 21:13 | 6.16925 | -75.42781 | 7018 ft | 0 kts | 70° |
| 2026-04-26 21:14 | 6.16932 | -75.42760 | 7018 ft | 5 kts | 70° |
| 2026-04-26 21:14 | 6.16943 | -75.42737 | 7018 ft | 2 kts | 57° |
| 2026-04-26 21:14 | 6.16962 | -75.42715 | 7017 ft | 7 kts | 47° |
| 2026-04-26 21:14 | 6.17000 | -75.42679 | 7017 ft | 8 kts | 38° |
| 2026-04-26 21:15 | 6.17044 | -75.42642 | 7017 ft | 9 kts | 51° |
| 2026-04-26 21:15 | 6.17032 | -75.42597 | 7020 ft | 5 kts | 125° |
| 2026-04-26 21:15 | 6.17010 | -75.42573 | 7019 ft | 10 kts | 136° |
| 2026-04-26 21:15 | 6.16944 | -75.42530 | 7017 ft | 11 kts | 151° |
| 2026-04-26 21:16 | 6.16883 | -75.42496 | 7019 ft | 10 kts | 151° |
| 2026-04-26 21:16 | 6.16820 | -75.42486 | 7013 ft | 9 kts | 179° |
| 2026-04-26 21:16 | 6.16736 | -75.42485 | 7016 ft | 14 kts | 179° |
| 2026-04-26 21:16 | 6.16630 | -75.42484 | 7000 ft | 17 kts | 179° |
| 2026-04-26 21:17 | 6.16504 | -75.42483 | 6993 ft | 20 kts | 180° |
| 2026-04-26 21:17 | 6.16348 | -75.42482 | 6992 ft | 24 kts | 180° |
| 2026-04-26 21:17 | 6.16169 | -75.42481 | 6986 ft | 27 kts | 181° |
| 2026-04-26 21:17 | 6.15976 | -75.42479 | 6983 ft | 29 kts | 179° |
| 2026-04-26 21:18 | 6.15775 | -75.42478 | 6979 ft | 30 kts | 180° |
| 2026-04-26 21:18 | 6.15565 | -75.42477 | 6979 ft | 30 kts | 179° |
| 2026-04-26 21:18 | 6.15355 | -75.42475 | 6977 ft | 30 kts | 179° |
| 2026-04-26 21:18 | 6.15162 | -75.42475 | 6978 ft | 27 kts | 180° |
| 2026-04-26 21:19 | 6.15003 | -75.42474 | 6977 ft | 17 kts | 180° |
| 2026-04-26 21:19 | 6.14911 | -75.42461 | 6977 ft | 11 kts | 146° |
| 2026-04-26 21:19 | 6.14899 | -75.42429 | 6977 ft | 0 kts | 86° |
| 2026-04-26 21:24 | 6.14900 | -75.42428 | 6977 ft | 2 kts | 86° |
| 2026-04-26 21:24 | 6.14906 | -75.42373 | 6977 ft | 12 kts | 70° |
| 2026-04-26 21:25 | 6.14962 | -75.42312 | 6977 ft | 12 kts | 28° |
| 2026-04-26 21:25 | 6.15032 | -75.42303 | 6978 ft | 6 kts | 358° |
| 2026-04-26 21:25 | 6.15082 | -75.42304 | 6979 ft | 11 kts | 360° |
| 2026-04-26 21:25 | 6.15354 | -75.42307 | 6980 ft | 74 kts | 359° |
| 2026-04-26 21:26 | 6.16075 | -75.42312 | 6982 ft | 133 kts | 0° |
| 2026-04-26 21:26 | 6.17155 | -75.42321 | 7083 ft | 171 kts | 0° |
| 2026-04-26 21:26 | 6.18362 | -75.42329 | 7752 ft | 179 kts | 0° |
| 2026-04-26 21:26 | 6.19613 | -75.42330 | 8431 ft | 181 kts | 0° |
| 2026-04-26 21:27 | 6.20941 | -75.42297 | 8676 ft | 201 kts | 10° |
| 2026-04-26 21:27 | 6.22154 | -75.41565 | 8998 ft | 213 kts | 55° |
| 2026-04-26 21:27 | 6.22550 | -75.40164 | 9454 ft | 218 kts | 97° |
| 2026-04-26 21:27 | 6.21964 | -75.38765 | 9962 ft | 220 kts | 122° |
| 2026-04-26 21:28 | 6.21112 | -75.37468 | 10462 ft | 222 kts | 124° |
| 2026-04-26 21:28 | 6.20235 | -75.36182 | 10918 ft | 224 kts | 124° |
| 2026-04-26 21:28 | 6.19342 | -75.34877 | 11407 ft | 226 kts | 124° |
| 2026-04-26 21:28 | 6.18464 | -75.33587 | 11874 ft | 228 kts | 124° |
| 2026-04-26 21:29 | 6.17571 | -75.32266 | 12343 ft | 229 kts | 125° |
| 2026-04-26 21:29 | 6.16534 | -75.30986 | 12552 ft | 244 kts | 134° |
| 2026-04-26 21:29 | 6.15201 | -75.29815 | 12662 ft | 265 kts | 144° |
| 2026-04-26 21:29 | 6.13542 | -75.28829 | 12830 ft | 289 kts | 155° |
| 2026-04-26 21:30 | 6.11624 | -75.28087 | 13128 ft | 306 kts | 160° |
| 2026-04-26 21:30 | 6.09593 | -75.27346 | 13743 ft | 312 kts | 160° |
| 2026-04-26 21:30 | 6.07547 | -75.26591 | 14373 ft | 316 kts | 160° |
| 2026-04-26 21:30 | 6.06168 | -75.26080 | 14784 ft | 318 kts | 160° |
| 2026-04-26 21:31 | 6.03360 | -75.25037 | 15583 ft | 323 kts | 160° |
| 2026-04-26 21:31 | 6.01265 | -75.24257 | 16175 ft | 326 kts | 160° |
| 2026-04-26 21:31 | 5.99122 | -75.23463 | 16763 ft | 329 kts | 160° |
| 2026-04-26 21:31 | 5.96937 | -75.22670 | 17058 ft | 344 kts | 161° |
| 2026-04-26 21:32 | 5.94612 | -75.21850 | 17155 ft | 361 kts | 161° |
| 2026-04-26 21:32 | 5.92179 | -75.20988 | 17256 ft | 378 kts | 161° |
| 2026-04-26 21:32 | 5.89643 | -75.20076 | 17374 ft | 394 kts | 160° |
| 2026-04-26 21:32 | 5.87067 | -75.19129 | 17694 ft | 401 kts | 160° |
| 2026-04-26 21:33 | 5.84424 | -75.18140 | 18164 ft | 406 kts | 160° |
| 2026-04-26 21:33 | 5.81767 | -75.17136 | 18603 ft | 409 kts | 160° |
| 2026-04-26 21:33 | 5.79126 | -75.16134 | 19023 ft | 411 kts | 160° |
| 2026-04-26 21:33 | 5.76441 | -75.15122 | 19458 ft | 413 kts | 160° |
| 2026-04-26 21:34 | 5.73731 | -75.14102 | 19887 ft | 416 kts | 160° |
| 2026-04-26 21:34 | 5.71003 | -75.13077 | 20314 ft | 418 kts | 160° |
| 2026-04-26 21:34 | 5.68269 | -75.12042 | 20733 ft | 421 kts | 159° |
| 2026-04-26 21:34 | 5.65532 | -75.10956 | 21151 ft | 423 kts | 158° |
| 2026-04-26 21:35 | 5.62839 | -75.09845 | 21555 ft | 425 kts | 158° |
| 2026-04-26 21:35 | 5.60102 | -75.08692 | 21965 ft | 427 kts | 157° |
| 2026-04-26 21:35 | 5.57349 | -75.07528 | 22364 ft | 430 kts | 157° |
| 2026-04-26 21:35 | 5.54566 | -75.06361 | 22710 ft | 432 kts | 157° |
| 2026-04-26 21:36 | 5.51789 | -75.05188 | 22929 ft | 433 kts | 157° |
| 2026-04-26 21:36 | 5.49932 | -75.04412 | 22974 ft | 439 kts | 157° |
| 2026-04-26 21:36 | 5.46189 | -75.02871 | 22841 ft | 430 kts | 158° |
| 2026-04-26 21:36 | 5.43465 | -75.01760 | 22588 ft | 417 kts | 158° |
| 2026-04-26 21:37 | 5.40809 | -75.00680 | 22334 ft | 405 kts | 158° |
| 2026-04-26 21:37 | 5.38225 | -74.99627 | 22004 ft | 394 kts | 158° |
| 2026-04-26 21:37 | 5.35726 | -74.98594 | 21717 ft | 386 kts | 157° |
| 2026-04-26 21:37 | 5.33239 | -74.97544 | 21095 ft | 387 kts | 157° |
| 2026-04-26 21:38 | 5.30775 | -74.96490 | 20694 ft | 382 kts | 157° |
| 2026-04-26 21:38 | 5.28337 | -74.95444 | 20198 ft | 380 kts | 157° |
| 2026-04-26 21:38 | 5.25938 | -74.94416 | 19748 ft | 378 kts | 157° |
| 2026-04-26 21:38 | 5.23520 | -74.93372 | 19300 ft | 376 kts | 154° |
| 2026-04-26 21:39 | 5.21336 | -74.91994 | 19135 ft | 365 kts | 141° |
| 2026-04-26 21:39 | 5.19573 | -74.90217 | 18995 ft | 354 kts | 128° |
| 2026-04-26 21:39 | 5.18264 | -74.88182 | 18714 ft | 350 kts | 120° |
| 2026-04-26 21:39 | 5.17060 | -74.86061 | 18337 ft | 348 kts | 120° |
| 2026-04-26 21:40 | 5.15865 | -74.83958 | 17947 ft | 347 kts | 120° |
| 2026-04-26 21:40 | 5.14659 | -74.81860 | 17486 ft | 342 kts | 121° |
| 2026-04-26 21:40 | 5.13578 | -74.79781 | 16850 ft | 338 kts | 109° |
| 2026-04-26 21:40 | 5.13178 | -74.77494 | 16612 ft | 331 kts | 89° |
| 2026-04-26 21:41 | 5.13342 | -74.75976 | 16549 ft | 331 kts | 76° |
| 2026-04-26 21:41 | 5.14684 | -74.73224 | 16580 ft | 332 kts | 49° |
| 2026-04-26 21:41 | 5.15767 | -74.72107 | 16579 ft | 332 kts | 43° |
| 2026-04-26 21:41 | 5.17460 | -74.70502 | 16579 ft | 333 kts | 43° |
| 2026-04-26 21:42 | 5.19701 | -74.68394 | 16591 ft | 333 kts | 43° |
| 2026-04-26 21:42 | 5.20823 | -74.67338 | 16595 ft | 333 kts | 43° |
| 2026-04-26 21:42 | 5.23070 | -74.65219 | 16602 ft | 333 kts | 43° |
| 2026-04-26 21:42 | 5.24152 | -74.64084 | 16604 ft | 333 kts | 51° |
| 2026-04-26 21:43 | 5.25401 | -74.62156 | 16608 ft | 334 kts | 64° |
| 2026-04-26 21:43 | 5.26275 | -74.59968 | 16617 ft | 333 kts | 70° |
| 2026-04-26 21:43 | 5.27074 | -74.57812 | 16628 ft | 334 kts | 69° |
| 2026-04-26 21:43 | 5.27890 | -74.55630 | 16639 ft | 334 kts | 69° |
| 2026-04-26 21:44 | 5.28710 | -74.53453 | 16646 ft | 334 kts | 69° |
| 2026-04-26 21:44 | 5.29534 | -74.51269 | 16641 ft | 334 kts | 69° |
| 2026-04-26 21:44 | 5.30354 | -74.49081 | 16653 ft | 333 kts | 71° |
| 2026-04-26 21:44 | 5.30874 | -74.46848 | 16652 ft | 333 kts | 84° |
| 2026-04-26 21:45 | 5.30886 | -74.44523 | 16661 ft | 333 kts | 95° |
| 2026-04-26 21:45 | 5.30689 | -74.42206 | 16658 ft | 333 kts | 95° |
| 2026-04-26 21:45 | 5.30499 | -74.39883 | 16655 ft | 333 kts | 95° |
| 2026-04-26 21:45 | 5.30308 | -74.37549 | 16653 ft | 334 kts | 97° |
| 2026-04-26 21:46 | 5.29689 | -74.35324 | 16679 ft | 332 kts | 117° |
| 2026-04-26 21:46 | 5.28335 | -74.33499 | 16686 ft | 331 kts | 139° |
| 2026-04-26 21:46 | 5.26395 | -74.32267 | 16636 ft | 331 kts | 160° |
| 2026-04-26 21:46 | 5.24157 | -74.31829 | 16507 ft | 328 kts | 181° |
| 2026-04-26 21:47 | 5.21912 | -74.32210 | 16369 ft | 326 kts | 197° |
| 2026-04-26 21:47 | 5.19742 | -74.32881 | 16259 ft | 327 kts | 198° |
| 2026-04-26 21:47 | 5.17594 | -74.33543 | 16134 ft | 326 kts | 197° |
| 2026-04-26 21:47 | 5.15427 | -74.34206 | 16007 ft | 326 kts | 198° |
| 2026-04-26 21:48 | 5.13251 | -74.34870 | 15900 ft | 325 kts | 197° |
| 2026-04-26 21:48 | 5.11089 | -74.35528 | 15784 ft | 325 kts | 197° |
| 2026-04-26 21:48 | 5.08922 | -74.36188 | 15619 ft | 324 kts | 197° |
| 2026-04-26 21:48 | 5.06791 | -74.36837 | 15508 ft | 323 kts | 197° |
| 2026-04-26 21:49 | 5.04638 | -74.37493 | 15382 ft | 322 kts | 197° |
| 2026-04-26 21:49 | 5.02494 | -74.38146 | 15263 ft | 322 kts | 197° |
| 2026-04-26 21:49 | 5.00349 | -74.38799 | 15160 ft | 321 kts | 197° |
| 2026-04-26 21:49 | 4.98212 | -74.39450 | 15051 ft | 320 kts | 197° |
| 2026-04-26 21:50 | 4.96079 | -74.40098 | 14942 ft | 320 kts | 197° |
| 2026-04-26 21:50 | 4.93967 | -74.40738 | 14827 ft | 312 kts | 195° |
| 2026-04-26 21:50 | 4.91870 | -74.41018 | 14721 ft | 303 kts | 179° |
| 2026-04-26 21:50 | 4.89813 | -74.40692 | 14582 ft | 297 kts | 162° |
| 2026-04-26 21:51 | 4.87965 | -74.39862 | 14396 ft | 294 kts | 153° |
| 2026-04-26 21:51 | 4.86127 | -74.38904 | 14203 ft | 292 kts | 153° |
| 2026-04-26 21:51 | 4.84347 | -74.37982 | 14009 ft | 291 kts | 153° |
| 2026-04-26 21:51 | 4.82545 | -74.37050 | 13804 ft | 289 kts | 153° |
| 2026-04-26 21:52 | 4.80776 | -74.36134 | 13613 ft | 289 kts | 153° |
| 2026-04-26 21:52 | 4.78972 | -74.35204 | 13455 ft | 286 kts | 153° |
| 2026-04-26 21:52 | 4.77250 | -74.34316 | 13372 ft | 277 kts | 153° |
| 2026-04-26 21:52 | 4.75547 | -74.33437 | 13392 ft | 272 kts | 153° |
| 2026-04-26 21:53 | 4.73887 | -74.32578 | 13410 ft | 270 kts | 153° |
| 2026-04-26 21:53 | 4.72216 | -74.31713 | 13426 ft | 270 kts | 154° |
| 2026-04-26 21:53 | 4.70542 | -74.30842 | 13434 ft | 267 kts | 152° |
| 2026-04-26 21:53 | 4.69034 | -74.29761 | 13449 ft | 266 kts | 137° |
| 2026-04-26 21:54 | 4.67842 | -74.28414 | 13423 ft | 256 kts | 129° |
| 2026-04-26 21:54 | 4.66733 | -74.27023 | 13167 ft | 254 kts | 129° |
| 2026-04-26 21:54 | 4.65629 | -74.25649 | 12945 ft | 252 kts | 129° |
| 2026-04-26 21:54 | 4.64532 | -74.24289 | 12728 ft | 249 kts | 129° |
| 2026-04-26 21:55 | 4.63448 | -74.22949 | 12517 ft | 242 kts | 129° |
| 2026-04-26 21:55 | 4.62509 | -74.21599 | 12259 ft | 234 kts | 119° |
| 2026-04-26 21:55 | 4.61865 | -74.20130 | 11924 ft | 227 kts | 108° |
| 2026-04-26 21:55 | 4.61485 | -74.18592 | 11651 ft | 226 kts | 103° |
| 2026-04-26 21:56 | 4.61107 | -74.17085 | 11365 ft | 223 kts | 105° |
| 2026-04-26 21:56 | 4.60716 | -74.15628 | 11080 ft | 211 kts | 105° |
| 2026-04-26 21:56 | 4.60427 | -74.14249 | 10833 ft | 192 kts | 93° |
| 2026-04-26 21:56 | 4.60577 | -74.12981 | 10574 ft | 177 kts | 72° |
| 2026-04-26 21:57 | 4.61097 | -74.11904 | 10345 ft | 169 kts | 54° |
| 2026-04-26 21:57 | 4.61889 | -74.11073 | 10133 ft | 165 kts | 37° |
| 2026-04-26 21:57 | 4.62891 | -74.10524 | 9901 ft | 163 kts | 19° |
| 2026-04-26 21:57 | 4.63995 | -74.10301 | 9695 ft | 162 kts | 1° |
| 2026-04-26 21:58 | 4.65107 | -74.10433 | 9514 ft | 162 kts | 342° |
| 2026-04-26 21:58 | 4.66125 | -74.10892 | 9256 ft | 162 kts | 327° |
| 2026-04-26 21:58 | 4.66975 | -74.11627 | 8986 ft | 163 kts | 310° |
| 2026-04-26 21:58 | 4.67703 | -74.12487 | 8840 ft | 162 kts | 310° |
| 2026-04-26 21:59 | 4.68387 | -74.13389 | 8639 ft | 163 kts | 308° |
| 2026-04-26 21:59 | 4.69058 | -74.14282 | 8413 ft | 163 kts | 309° |
| 2026-04-26 21:59 | 4.69705 | -74.15130 | 8373 ft | 136 kts | 307° |
| 2026-04-26 21:59 | 4.70169 | -74.15745 | 8371 ft | 86 kts | 307° |
| 2026-04-26 22:00 | 4.70443 | -74.16107 | 8373 ft | 54 kts | 307° |
| 2026-04-26 22:00 | 4.70657 | -74.16388 | 8374 ft | 47 kts | 306° |
| 2026-04-26 22:00 | 4.70844 | -74.16637 | 8372 ft | 43 kts | 307° |
| 2026-04-26 22:00 | 4.71000 | -74.16843 | 8372 ft | 30 kts | 308° |
| 2026-04-26 22:01 | 4.71125 | -74.16850 | 8371 ft | 17 kts | 32° |
| 2026-04-26 22:01 | 4.71165 | -74.16821 | 8371 ft | 0 kts | 37° |
| 2026-04-26 22:01 | 4.71170 | -74.16818 | 8371 ft | 4 kts | 37° |
| 2026-04-26 22:01 | 4.71202 | -74.16791 | 8371 ft | 6 kts | 53° |
| 2026-04-26 22:02 | 4.71199 | -74.16750 | 8371 ft | 6 kts | 124° |
| 2026-04-26 22:02 | 4.71172 | -74.16713 | 8371 ft | 7 kts | 126° |
| 2026-04-26 22:02 | 4.71142 | -74.16672 | 8371 ft | 7 kts | 126° |
| 2026-04-26 22:02 | 4.71107 | -74.16625 | 8371 ft | 11 kts | 128° |
| 2026-04-26 22:03 | 4.71047 | -74.16548 | 8371 ft | 15 kts | 127° |
| 2026-04-26 22:03 | 4.70984 | -74.16465 | 8371 ft | 15 kts | 127° |
| 2026-04-26 22:03 | 4.70919 | -74.16378 | 8371 ft | 16 kts | 127° |
| 2026-04-26 22:03 | 4.70854 | -74.16292 | 8371 ft | 16 kts | 128° |
| 2026-04-26 22:04 | 4.70787 | -74.16205 | 8371 ft | 16 kts | 127° |
| 2026-04-26 22:04 | 4.70720 | -74.16118 | 8371 ft | 16 kts | 128° |
| 2026-04-26 22:04 | 4.70655 | -74.16033 | 8370 ft | 15 kts | 127° |
| 2026-04-26 22:04 | 4.70592 | -74.15949 | 8370 ft | 15 kts | 127° |
| 2026-04-26 22:05 | 4.70533 | -74.15868 | 8370 ft | 14 kts | 126° |
| 2026-04-26 22:05 | 4.70476 | -74.15792 | 8370 ft | 13 kts | 126° |
| 2026-04-26 22:05 | 4.70420 | -74.15719 | 8370 ft | 13 kts | 129° |
| 2026-04-26 22:05 | 4.70364 | -74.15649 | 8370 ft | 12 kts | 128° |
| 2026-04-26 22:06 | 4.70313 | -74.15582 | 8370 ft | 13 kts | 127° |
| 2026-04-26 22:06 | 4.70244 | -74.15489 | 8370 ft | 20 kts | 126° |
| 2026-04-26 22:06 | 4.70158 | -74.15375 | 8370 ft | 20 kts | 127° |
| 2026-04-26 22:06 | 4.70076 | -74.15265 | 8371 ft | 19 kts | 127° |
| 2026-04-26 22:07 | 4.69996 | -74.15159 | 8370 ft | 19 kts | 128° |
| 2026-04-26 22:07 | 4.69917 | -74.15058 | 8371 ft | 18 kts | 128° |
| 2026-04-26 22:07 | 4.69846 | -74.14963 | 8371 ft | 17 kts | 126° |
| 2026-04-26 22:07 | 4.69778 | -74.14870 | 8370 ft | 16 kts | 127° |
| 2026-04-26 22:08 | 4.69802 | -74.14780 | 8370 ft | 15 kts | 33° |
| 2026-04-26 22:08 | 4.69889 | -74.14716 | 8370 ft | 16 kts | 37° |
| 2026-04-26 22:08 | 4.69944 | -74.14658 | 8370 ft | 7 kts | 107° |
| 2026-04-26 22:08 | 4.69922 | -74.14627 | 8370 ft | 1 kts | 124° |
| 2026-04-26 22:09 | 4.69913 | -74.14612 | 8370 ft | 4 kts | 121° |
| 2026-04-26 22:09 | 4.69911 | -74.14610 | 8370 ft | 0 kts | 121° |